<?xml version="1.0" encoding="UTF-8" standalone="no" ?>
<gpx xmlns="http://www.topografix.com/GPX/1/1" xmlns:xsi="http://www.w3.org/2001/XMLSchema-instance" xsi:schemaLocation="http://www.topografix.com/GPX/1/1 http://www.topografix.com/GPX/1/1/gpx.xsd" version="1.1" creator="VisuGPX - https://www.visugpx.com">
  <metadata>
    <name>marche yves suite</name>
    <desc><![CDATA[vendredi 26 avril]]></desc>
  </metadata>
  <trk>
    <name><![CDATA[marche yves suite_1]]></name>
    <trkseg>
      <trkpt lat="43.9505" lon="0.52353">
        <ele>152</ele>
        <time>2013-04-26T07:18:37</time>
      </trkpt>
      <trkpt lat="43.9505" lon="0.52429">
        <ele>150</ele>
        <time>2013-04-26T07:19:37</time>
      </trkpt>
      <trkpt lat="43.951" lon="0.5242">
        <ele>143</ele>
        <time>2013-04-26T07:20:38</time>
      </trkpt>
      <trkpt lat="43.9515" lon="0.52433">
        <ele>136</ele>
        <time>2013-04-26T07:21:38</time>
      </trkpt>
      <trkpt lat="43.952" lon="0.5249">
        <ele>132</ele>
        <time>2013-04-26T07:22:38</time>
      </trkpt>
      <trkpt lat="43.9524" lon="0.52567">
        <ele>127</ele>
        <time>2013-04-26T07:23:39</time>
      </trkpt>
      <trkpt lat="43.9527" lon="0.52646">
        <ele>126</ele>
        <time>2013-04-26T07:24:39</time>
      </trkpt>
      <trkpt lat="43.9528" lon="0.52732">
        <ele>124</ele>
        <time>2013-04-26T07:25:39</time>
      </trkpt>
      <trkpt lat="43.9529" lon="0.52764">
        <ele>124</ele>
        <time>2013-04-26T07:26:40</time>
      </trkpt>
      <trkpt lat="43.9535" lon="0.52744">
        <ele>132</ele>
        <time>2013-04-26T07:27:40</time>
      </trkpt>
      <trkpt lat="43.9541" lon="0.52749">
        <ele>139</ele>
        <time>2013-04-26T07:28:40</time>
      </trkpt>
      <trkpt lat="43.9548" lon="0.52717">
        <ele>145</ele>
        <time>2013-04-26T07:29:41</time>
      </trkpt>
      <trkpt lat="43.9549" lon="0.52694">
        <ele>144</ele>
        <time>2013-04-26T07:30:41</time>
      </trkpt>
      <trkpt lat="43.9549" lon="0.52688">
        <ele>145</ele>
        <time>2013-04-26T07:31:42</time>
      </trkpt>
      <trkpt lat="43.955" lon="0.52696">
        <ele>144</ele>
        <time>2013-04-26T07:32:42</time>
      </trkpt>
      <trkpt lat="43.9549" lon="0.52691">
        <ele>145</ele>
        <time>2013-04-26T07:33:42</time>
      </trkpt>
      <trkpt lat="43.9549" lon="0.52683">
        <ele>145</ele>
        <time>2013-04-26T07:34:42</time>
      </trkpt>
      <trkpt lat="43.9548" lon="0.52689">
        <ele>144</ele>
        <time>2013-04-26T07:35:43</time>
      </trkpt>
      <trkpt lat="43.9549" lon="0.52687">
        <ele>144</ele>
        <time>2013-04-26T07:36:43</time>
      </trkpt>
      <trkpt lat="43.9549" lon="0.52686">
        <ele>145</ele>
        <time>2013-04-26T07:37:43</time>
      </trkpt>
      <trkpt lat="43.9549" lon="0.52691">
        <ele>145</ele>
        <time>2013-04-26T07:38:44</time>
      </trkpt>
      <trkpt lat="43.9552" lon="0.52659">
        <ele>147</ele>
        <time>2013-04-26T07:39:44</time>
      </trkpt>
      <trkpt lat="43.9557" lon="0.52605">
        <ele>147</ele>
        <time>2013-04-26T07:40:44</time>
      </trkpt>
      <trkpt lat="43.9561" lon="0.52541">
        <ele>147</ele>
        <time>2013-04-26T07:41:45</time>
      </trkpt>
      <trkpt lat="43.9565" lon="0.52484">
        <ele>149</ele>
        <time>2013-04-26T07:42:45</time>
      </trkpt>
      <trkpt lat="43.957" lon="0.52415">
        <ele>150</ele>
        <time>2013-04-26T07:43:45</time>
      </trkpt>
      <trkpt lat="43.9571" lon="0.52454">
        <ele>149</ele>
        <time>2013-04-26T07:44:46</time>
      </trkpt>
      <trkpt lat="43.9568" lon="0.52545">
        <ele>143</ele>
        <time>2013-04-26T07:45:46</time>
      </trkpt>
      <trkpt lat="43.957" lon="0.52632">
        <ele>135</ele>
        <time>2013-04-26T07:46:47</time>
      </trkpt>
      <trkpt lat="43.9572" lon="0.52702">
        <ele>125</ele>
        <time>2013-04-26T07:47:47</time>
      </trkpt>
      <trkpt lat="43.9574" lon="0.52792">
        <ele>116</ele>
        <time>2013-04-26T07:48:47</time>
      </trkpt>
      <trkpt lat="43.958" lon="0.52834">
        <ele>107</ele>
        <time>2013-04-26T07:49:48</time>
      </trkpt>
      <trkpt lat="43.9582" lon="0.52917">
        <ele>97</ele>
        <time>2013-04-26T07:50:48</time>
      </trkpt>
      <trkpt lat="43.9583" lon="0.53019">
        <ele>89</ele>
        <time>2013-04-26T07:51:48</time>
      </trkpt>
      <trkpt lat="43.9585" lon="0.53119">
        <ele>84</ele>
        <time>2013-04-26T07:52:49</time>
      </trkpt>
      <trkpt lat="43.9588" lon="0.5321">
        <ele>77</ele>
        <time>2013-04-26T07:53:49</time>
      </trkpt>
      <trkpt lat="43.9594" lon="0.53211">
        <ele>74</ele>
        <time>2013-04-26T07:54:49</time>
      </trkpt>
      <trkpt lat="43.9601" lon="0.53168">
        <ele>75</ele>
        <time>2013-04-26T07:55:50</time>
      </trkpt>
      <trkpt lat="43.9607" lon="0.53213">
        <ele>74</ele>
        <time>2013-04-26T07:56:50</time>
      </trkpt>
      <trkpt lat="43.9613" lon="0.5321">
        <ele>81</ele>
        <time>2013-04-26T07:57:50</time>
      </trkpt>
      <trkpt lat="43.9619" lon="0.5321">
        <ele>90</ele>
        <time>2013-04-26T07:58:51</time>
      </trkpt>
      <trkpt lat="43.9624" lon="0.5319">
        <ele>99</ele>
        <time>2013-04-26T07:59:51</time>
      </trkpt>
      <trkpt lat="43.9629" lon="0.53197">
        <ele>109</ele>
        <time>2013-04-26T08:00:51</time>
      </trkpt>
      <trkpt lat="43.9634" lon="0.53241">
        <ele>117</ele>
        <time>2013-04-26T08:01:52</time>
      </trkpt>
      <trkpt lat="43.9636" lon="0.5324">
        <ele>118</ele>
        <time>2013-04-26T08:02:52</time>
      </trkpt>
      <trkpt lat="43.9636" lon="0.53236">
        <ele>119</ele>
        <time>2013-04-26T08:03:52</time>
      </trkpt>
      <trkpt lat="43.9637" lon="0.53211">
        <ele>117</ele>
        <time>2013-04-26T08:04:53</time>
      </trkpt>
      <trkpt lat="43.9643" lon="0.53171">
        <ele>128</ele>
        <time>2013-04-26T08:05:53</time>
      </trkpt>
      <trkpt lat="43.9647" lon="0.53115">
        <ele>136</ele>
        <time>2013-04-26T08:06:54</time>
      </trkpt>
      <trkpt lat="43.965" lon="0.53051">
        <ele>142</ele>
        <time>2013-04-26T08:07:54</time>
      </trkpt>
      <trkpt lat="43.9655" lon="0.53058">
        <ele>146</ele>
        <time>2013-04-26T08:08:54</time>
      </trkpt>
      <trkpt lat="43.966" lon="0.53058">
        <ele>149</ele>
        <time>2013-04-26T08:09:55</time>
      </trkpt>
      <trkpt lat="43.9668" lon="0.53046">
        <ele>150</ele>
        <time>2013-04-26T08:10:55</time>
      </trkpt>
      <trkpt lat="43.9673" lon="0.52973">
        <ele>152</ele>
        <time>2013-04-26T08:11:55</time>
      </trkpt>
      <trkpt lat="43.9677" lon="0.52898">
        <ele>154</ele>
        <time>2013-04-26T08:12:56</time>
      </trkpt>
      <trkpt lat="43.9683" lon="0.52832">
        <ele>155</ele>
        <time>2013-04-26T08:13:56</time>
      </trkpt>
      <trkpt lat="43.9688" lon="0.52762">
        <ele>154</ele>
        <time>2013-04-26T08:14:57</time>
      </trkpt>
      <trkpt lat="43.9693" lon="0.52688">
        <ele>155</ele>
        <time>2013-04-26T08:15:57</time>
      </trkpt>
      <trkpt lat="43.9697" lon="0.52603">
        <ele>154</ele>
        <time>2013-04-26T08:16:57</time>
      </trkpt>
      <trkpt lat="43.97" lon="0.52517">
        <ele>152</ele>
        <time>2013-04-26T08:17:58</time>
      </trkpt>
      <trkpt lat="43.9702" lon="0.52414">
        <ele>150</ele>
        <time>2013-04-26T08:18:58</time>
      </trkpt>
      <trkpt lat="43.9705" lon="0.52313">
        <ele>155</ele>
        <time>2013-04-26T08:19:58</time>
      </trkpt>
      <trkpt lat="43.9707" lon="0.52213">
        <ele>157</ele>
        <time>2013-04-26T08:20:59</time>
      </trkpt>
      <trkpt lat="43.971" lon="0.52122">
        <ele>159</ele>
        <time>2013-04-26T08:21:59</time>
      </trkpt>
      <trkpt lat="43.9714" lon="0.5204">
        <ele>158</ele>
        <time>2013-04-26T08:23:00</time>
      </trkpt>
      <trkpt lat="43.972" lon="0.51972">
        <ele>156</ele>
        <time>2013-04-26T08:24:00</time>
      </trkpt>
      <trkpt lat="43.9727" lon="0.51922">
        <ele>159</ele>
        <time>2013-04-26T08:25:00</time>
      </trkpt>
      <trkpt lat="43.9733" lon="0.51871">
        <ele>157</ele>
        <time>2013-04-26T08:26:01</time>
      </trkpt>
      <trkpt lat="43.9737" lon="0.51792">
        <ele>156</ele>
        <time>2013-04-26T08:27:01</time>
      </trkpt>
      <trkpt lat="43.974" lon="0.51698">
        <ele>154</ele>
        <time>2013-04-26T08:28:01</time>
      </trkpt>
      <trkpt lat="43.9743" lon="0.51603">
        <ele>152</ele>
        <time>2013-04-26T08:29:02</time>
      </trkpt>
      <trkpt lat="43.9747" lon="0.51519">
        <ele>159</ele>
        <time>2013-04-26T08:30:02</time>
      </trkpt>
      <trkpt lat="43.9753" lon="0.51464">
        <ele>164</ele>
        <time>2013-04-26T08:31:02</time>
      </trkpt>
      <trkpt lat="43.9759" lon="0.51414">
        <ele>165</ele>
        <time>2013-04-26T08:32:03</time>
      </trkpt>
      <trkpt lat="43.9765" lon="0.51354">
        <ele>166</ele>
        <time>2013-04-26T08:33:03</time>
      </trkpt>
      <trkpt lat="43.9767" lon="0.51267">
        <ele>164</ele>
        <time>2013-04-26T08:34:04</time>
      </trkpt>
      <trkpt lat="43.977" lon="0.51193">
        <ele>167</ele>
        <time>2013-04-26T08:35:04</time>
      </trkpt>
      <trkpt lat="43.9772" lon="0.51218">
        <ele>164</ele>
        <time>2013-04-26T08:36:05</time>
      </trkpt>
      <trkpt lat="43.9778" lon="0.51255">
        <ele>158</ele>
        <time>2013-04-26T08:37:05</time>
      </trkpt>
      <trkpt lat="43.9784" lon="0.51303">
        <ele>158</ele>
        <time>2013-04-26T08:38:05</time>
      </trkpt>
      <trkpt lat="43.9787" lon="0.51374">
        <ele>155</ele>
        <time>2013-04-26T08:39:06</time>
      </trkpt>
      <trkpt lat="43.9783" lon="0.51448">
        <ele>153</ele>
        <time>2013-04-26T08:40:06</time>
      </trkpt>
      <trkpt lat="43.9781" lon="0.5154">
        <ele>152</ele>
        <time>2013-04-26T08:41:07</time>
      </trkpt>
      <trkpt lat="43.9786" lon="0.51571">
        <ele>156</ele>
        <time>2013-04-26T08:42:07</time>
      </trkpt>
      <trkpt lat="43.9793" lon="0.51593">
        <ele>157</ele>
        <time>2013-04-26T08:43:07</time>
      </trkpt>
      <trkpt lat="43.9799" lon="0.51557">
        <ele>160</ele>
        <time>2013-04-26T08:44:07</time>
      </trkpt>
      <trkpt lat="43.9803" lon="0.5155">
        <ele>159</ele>
        <time>2013-04-26T08:45:08</time>
      </trkpt>
      <trkpt lat="43.9805" lon="0.51639">
        <ele>159</ele>
        <time>2013-04-26T08:46:08</time>
      </trkpt>
      <trkpt lat="43.9806" lon="0.51742">
        <ele>157</ele>
        <time>2013-04-26T08:47:09</time>
      </trkpt>
      <trkpt lat="43.9805" lon="0.51851">
        <ele>159</ele>
        <time>2013-04-26T08:48:09</time>
      </trkpt>
      <trkpt lat="43.9804" lon="0.51947">
        <ele>162</ele>
        <time>2013-04-26T08:49:09</time>
      </trkpt>
      <trkpt lat="43.9804" lon="0.52043">
        <ele>164</ele>
        <time>2013-04-26T08:50:10</time>
      </trkpt>
      <trkpt lat="43.9807" lon="0.52119">
        <ele>164</ele>
        <time>2013-04-26T08:51:10</time>
      </trkpt>
      <trkpt lat="43.9814" lon="0.52122">
        <ele>166</ele>
        <time>2013-04-26T08:52:10</time>
      </trkpt>
      <trkpt lat="43.9821" lon="0.52124">
        <ele>168</ele>
        <time>2013-04-26T08:53:11</time>
      </trkpt>
      <trkpt lat="43.9828" lon="0.52139">
        <ele>173</ele>
        <time>2013-04-26T08:54:11</time>
      </trkpt>
      <trkpt lat="43.9833" lon="0.52175">
        <ele>175</ele>
        <time>2013-04-26T08:55:11</time>
      </trkpt>
      <trkpt lat="43.9836" lon="0.52259">
        <ele>176</ele>
        <time>2013-04-26T08:56:11</time>
      </trkpt>
      <trkpt lat="43.9836" lon="0.52352">
        <ele>178</ele>
        <time>2013-04-26T08:57:12</time>
      </trkpt>
      <trkpt lat="43.9832" lon="0.52455">
        <ele>174</ele>
        <time>2013-04-26T08:58:12</time>
      </trkpt>
      <trkpt lat="43.9829" lon="0.52569">
        <ele>171</ele>
        <time>2013-04-26T08:59:13</time>
      </trkpt>
      <trkpt lat="43.983" lon="0.52636">
        <ele>166</ele>
        <time>2013-04-26T09:00:13</time>
      </trkpt>
      <trkpt lat="43.9838" lon="0.52673">
        <ele>162</ele>
        <time>2013-04-26T09:01:13</time>
      </trkpt>
      <trkpt lat="43.9841" lon="0.52722">
        <ele>157</ele>
        <time>2013-04-26T09:02:14</time>
      </trkpt>
      <trkpt lat="43.9847" lon="0.52717">
        <ele>149</ele>
        <time>2013-04-26T09:03:14</time>
      </trkpt>
      <trkpt lat="43.9852" lon="0.52762">
        <ele>156</ele>
        <time>2013-04-26T09:04:14</time>
      </trkpt>
      <trkpt lat="43.9851" lon="0.52829">
        <ele>155</ele>
        <time>2013-04-26T09:05:15</time>
      </trkpt>
      <trkpt lat="43.9852" lon="0.52893">
        <ele>154</ele>
        <time>2013-04-26T09:06:15</time>
      </trkpt>
      <trkpt lat="43.9854" lon="0.52972">
        <ele>153</ele>
        <time>2013-04-26T09:07:16</time>
      </trkpt>
      <trkpt lat="43.9857" lon="0.53055">
        <ele>149</ele>
        <time>2013-04-26T09:08:16</time>
      </trkpt>
      <trkpt lat="43.9857" lon="0.53148">
        <ele>150</ele>
        <time>2013-04-26T09:09:16</time>
      </trkpt>
      <trkpt lat="43.9861" lon="0.53219">
        <ele>156</ele>
        <time>2013-04-26T09:10:16</time>
      </trkpt>
      <trkpt lat="43.9864" lon="0.53301">
        <ele>157</ele>
        <time>2013-04-26T09:11:17</time>
      </trkpt>
      <trkpt lat="43.9867" lon="0.53373">
        <ele>157</ele>
        <time>2013-04-26T09:12:17</time>
      </trkpt>
      <trkpt lat="43.9871" lon="0.53461">
        <ele>157</ele>
        <time>2013-04-26T09:13:18</time>
      </trkpt>
      <trkpt lat="43.9874" lon="0.53461">
        <ele>158</ele>
        <time>2013-04-26T09:14:18</time>
      </trkpt>
      <trkpt lat="43.9881" lon="0.53446">
        <ele>157</ele>
        <time>2013-04-26T09:15:19</time>
      </trkpt>
      <trkpt lat="43.9888" lon="0.53416">
        <ele>155</ele>
        <time>2013-04-26T09:16:19</time>
      </trkpt>
      <trkpt lat="43.9895" lon="0.5343">
        <ele>146</ele>
        <time>2013-04-26T09:17:19</time>
      </trkpt>
      <trkpt lat="43.9903" lon="0.53417">
        <ele>141</ele>
        <time>2013-04-26T09:18:20</time>
      </trkpt>
      <trkpt lat="43.9908" lon="0.53339">
        <ele>141</ele>
        <time>2013-04-26T09:19:20</time>
      </trkpt>
      <trkpt lat="43.9911" lon="0.53259">
        <ele>140</ele>
        <time>2013-04-26T09:20:21</time>
      </trkpt>
      <trkpt lat="43.9913" lon="0.53281">
        <ele>140</ele>
        <time>2013-04-26T09:21:21</time>
      </trkpt>
      <trkpt lat="43.9918" lon="0.5336">
        <ele>138</ele>
        <time>2013-04-26T09:22:21</time>
      </trkpt>
      <trkpt lat="43.9922" lon="0.5344">
        <ele>141</ele>
        <time>2013-04-26T09:23:21</time>
      </trkpt>
      <trkpt lat="43.9924" lon="0.53537">
        <ele>141</ele>
        <time>2013-04-26T09:24:22</time>
      </trkpt>
      <trkpt lat="43.9922" lon="0.53627">
        <ele>143</ele>
        <time>2013-04-26T09:25:22</time>
      </trkpt>
      <trkpt lat="43.9919" lon="0.53729">
        <ele>134</ele>
        <time>2013-04-26T09:26:22</time>
      </trkpt>
      <trkpt lat="43.9914" lon="0.53823">
        <ele>131</ele>
        <time>2013-04-26T09:27:23</time>
      </trkpt>
      <trkpt lat="43.991" lon="0.53907">
        <ele>134</ele>
        <time>2013-04-26T09:28:23</time>
      </trkpt>
      <trkpt lat="43.9905" lon="0.53956">
        <ele>135</ele>
        <time>2013-04-26T09:29:24</time>
      </trkpt>
      <trkpt lat="43.99" lon="0.54013">
        <ele>140</ele>
        <time>2013-04-26T09:30:24</time>
      </trkpt>
      <trkpt lat="43.9899" lon="0.54111">
        <ele>145</ele>
        <time>2013-04-26T09:31:24</time>
      </trkpt>
      <trkpt lat="43.9898" lon="0.54165">
        <ele>144</ele>
        <time>2013-04-26T09:32:25</time>
      </trkpt>
      <trkpt lat="43.9894" lon="0.54231">
        <ele>139</ele>
        <time>2013-04-26T09:33:25</time>
      </trkpt>
      <trkpt lat="43.9893" lon="0.54315">
        <ele>134</ele>
        <time>2013-04-26T09:34:26</time>
      </trkpt>
      <trkpt lat="43.9894" lon="0.5432">
        <ele>135</ele>
        <time>2013-04-26T09:35:26</time>
      </trkpt>
      <trkpt lat="43.9895" lon="0.5431">
        <ele>136</ele>
        <time>2013-04-26T09:36:26</time>
      </trkpt>
      <trkpt lat="43.9895" lon="0.54297">
        <ele>135</ele>
        <time>2013-04-26T09:37:27</time>
      </trkpt>
      <trkpt lat="43.9893" lon="0.54338">
        <ele>134</ele>
        <time>2013-04-26T09:38:27</time>
      </trkpt>
      <trkpt lat="43.9893" lon="0.54343">
        <ele>134</ele>
        <time>2013-04-26T09:39:27</time>
      </trkpt>
      <trkpt lat="43.9893" lon="0.54331">
        <ele>134</ele>
        <time>2013-04-26T09:40:28</time>
      </trkpt>
      <trkpt lat="43.9894" lon="0.54327">
        <ele>134</ele>
        <time>2013-04-26T09:41:28</time>
      </trkpt>
      <trkpt lat="43.9891" lon="0.5432">
        <ele>130</ele>
        <time>2013-04-26T09:42:28</time>
      </trkpt>
      <trkpt lat="43.9885" lon="0.54319">
        <ele>120</ele>
        <time>2013-04-26T09:43:29</time>
      </trkpt>
      <trkpt lat="43.9881" lon="0.54251">
        <ele>109</ele>
        <time>2013-04-26T09:44:29</time>
      </trkpt>
      <trkpt lat="43.9877" lon="0.54183">
        <ele>99</ele>
        <time>2013-04-26T09:45:29</time>
      </trkpt>
      <trkpt lat="43.987" lon="0.54174">
        <ele>85</ele>
        <time>2013-04-26T09:46:30</time>
      </trkpt>
      <trkpt lat="43.9863" lon="0.54224">
        <ele>82</ele>
        <time>2013-04-26T09:47:30</time>
      </trkpt>
      <trkpt lat="43.9857" lon="0.54262">
        <ele>79</ele>
        <time>2013-04-26T09:48:31</time>
      </trkpt>
      <trkpt lat="43.9851" lon="0.54308">
        <ele>76</ele>
        <time>2013-04-26T09:49:31</time>
      </trkpt>
      <trkpt lat="43.9843" lon="0.54321">
        <ele>85</ele>
        <time>2013-04-26T09:50:31</time>
      </trkpt>
      <trkpt lat="43.9841" lon="0.54401">
        <ele>88</ele>
        <time>2013-04-26T09:51:32</time>
      </trkpt>
      <trkpt lat="43.9841" lon="0.54478">
        <ele>91</ele>
        <time>2013-04-26T09:52:32</time>
      </trkpt>
      <trkpt lat="43.9837" lon="0.54538">
        <ele>82</ele>
        <time>2013-04-26T09:53:32</time>
      </trkpt>
      <trkpt lat="43.9831" lon="0.5459">
        <ele>75</ele>
        <time>2013-04-26T09:54:33</time>
      </trkpt>
      <trkpt lat="43.9834" lon="0.54675">
        <ele>73</ele>
        <time>2013-04-26T09:55:33</time>
      </trkpt>
      <trkpt lat="43.9838" lon="0.54749">
        <ele>72</ele>
        <time>2013-04-26T09:56:34</time>
      </trkpt>
      <trkpt lat="43.9841" lon="0.54841">
        <ele>69</ele>
        <time>2013-04-26T09:57:34</time>
      </trkpt>
      <trkpt lat="43.9846" lon="0.54909">
        <ele>67</ele>
        <time>2013-04-26T09:58:34</time>
      </trkpt>
      <trkpt lat="43.9848" lon="0.55008">
        <ele>64</ele>
        <time>2013-04-26T09:59:35</time>
      </trkpt>
      <trkpt lat="43.9848" lon="0.55105">
        <ele>64</ele>
        <time>2013-04-26T10:00:35</time>
      </trkpt>
      <trkpt lat="43.9847" lon="0.55195">
        <ele>64</ele>
        <time>2013-04-26T10:01:36</time>
      </trkpt>
      <trkpt lat="43.9845" lon="0.55298">
        <ele>62</ele>
        <time>2013-04-26T10:02:36</time>
      </trkpt>
      <trkpt lat="43.9843" lon="0.55397">
        <ele>61</ele>
        <time>2013-04-26T10:03:36</time>
      </trkpt>
      <trkpt lat="43.9841" lon="0.55494">
        <ele>60</ele>
        <time>2013-04-26T10:04:36</time>
      </trkpt>
      <trkpt lat="43.9838" lon="0.55514">
        <ele>60</ele>
        <time>2013-04-26T10:05:37</time>
      </trkpt>
      <trkpt lat="43.9832" lon="0.55475">
        <ele>61</ele>
        <time>2013-04-26T10:06:37</time>
      </trkpt>
      <trkpt lat="43.9824" lon="0.55452">
        <ele>61</ele>
        <time>2013-04-26T10:07:37</time>
      </trkpt>
      <trkpt lat="43.9817" lon="0.55422">
        <ele>59</ele>
        <time>2013-04-26T10:08:38</time>
      </trkpt>
      <trkpt lat="43.981" lon="0.55419">
        <ele>59</ele>
        <time>2013-04-26T10:09:38</time>
      </trkpt>
      <trkpt lat="43.9806" lon="0.55507">
        <ele>60</ele>
        <time>2013-04-26T10:10:39</time>
      </trkpt>
      <trkpt lat="43.9801" lon="0.55557">
        <ele>60</ele>
        <time>2013-04-26T10:11:39</time>
      </trkpt>
      <trkpt lat="43.9793" lon="0.55561">
        <ele>60</ele>
        <time>2013-04-26T10:12:39</time>
      </trkpt>
      <trkpt lat="43.9786" lon="0.55594">
        <ele>61</ele>
        <time>2013-04-26T10:13:40</time>
      </trkpt>
      <trkpt lat="43.9782" lon="0.55669">
        <ele>69</ele>
        <time>2013-04-26T10:14:40</time>
      </trkpt>
      <trkpt lat="43.9781" lon="0.55741">
        <ele>77</ele>
        <time>2013-04-26T10:15:41</time>
      </trkpt>
      <trkpt lat="43.9778" lon="0.5581">
        <ele>87</ele>
        <time>2013-04-26T10:16:41</time>
      </trkpt>
      <trkpt lat="43.9774" lon="0.55851">
        <ele>95</ele>
        <time>2013-04-26T10:17:41</time>
      </trkpt>
      <trkpt lat="43.9771" lon="0.5591">
        <ele>101</ele>
        <time>2013-04-26T10:18:42</time>
      </trkpt>
      <trkpt lat="43.9767" lon="0.55945">
        <ele>104</ele>
        <time>2013-04-26T10:19:42</time>
      </trkpt>
      <trkpt lat="43.9764" lon="0.56011">
        <ele>108</ele>
        <time>2013-04-26T10:20:42</time>
      </trkpt>
      <trkpt lat="43.9761" lon="0.56077">
        <ele>117</ele>
        <time>2013-04-26T10:21:43</time>
      </trkpt>
      <trkpt lat="43.9759" lon="0.56113">
        <ele>123</ele>
        <time>2013-04-26T10:22:43</time>
      </trkpt>
      <trkpt lat="43.9759" lon="0.56134">
        <ele>122</ele>
        <time>2013-04-26T10:23:43</time>
      </trkpt>
      <trkpt lat="43.9759" lon="0.56132">
        <ele>123</ele>
        <time>2013-04-26T10:24:44</time>
      </trkpt>
      <trkpt lat="43.9758" lon="0.56142">
        <ele>124</ele>
        <time>2013-04-26T10:25:44</time>
      </trkpt>
      <trkpt lat="43.9753" lon="0.5621">
        <ele>127</ele>
        <time>2013-04-26T10:26:44</time>
      </trkpt>
      <trkpt lat="43.9747" lon="0.56242">
        <ele>135</ele>
        <time>2013-04-26T10:27:45</time>
      </trkpt>
      <trkpt lat="43.9741" lon="0.56292">
        <ele>141</ele>
        <time>2013-04-26T10:28:45</time>
      </trkpt>
      <trkpt lat="43.9739" lon="0.56315">
        <ele>143</ele>
        <time>2013-04-26T10:29:46</time>
      </trkpt>
      <trkpt lat="43.9738" lon="0.56321">
        <ele>143</ele>
        <time>2013-04-26T10:30:46</time>
      </trkpt>
      <trkpt lat="43.9737" lon="0.56328">
        <ele>144</ele>
        <time>2013-04-26T10:31:46</time>
      </trkpt>
      <trkpt lat="43.9737" lon="0.5633">
        <ele>144</ele>
        <time>2013-04-26T10:32:47</time>
      </trkpt>
      <trkpt lat="43.9736" lon="0.56334">
        <ele>145</ele>
        <time>2013-04-26T10:33:47</time>
      </trkpt>
      <trkpt lat="43.9736" lon="0.56331">
        <ele>146</ele>
        <time>2013-04-26T10:34:47</time>
      </trkpt>
      <trkpt lat="43.9736" lon="0.56335">
        <ele>145</ele>
        <time>2013-04-26T10:35:48</time>
      </trkpt>
      <trkpt lat="43.9736" lon="0.56322">
        <ele>145</ele>
        <time>2013-04-26T10:36:48</time>
      </trkpt>
      <trkpt lat="43.9729" lon="0.5628">
        <ele>146</ele>
        <time>2013-04-26T10:37:49</time>
      </trkpt>
      <trkpt lat="43.9722" lon="0.56243">
        <ele>146</ele>
        <time>2013-04-26T10:38:49</time>
      </trkpt>
      <trkpt lat="43.9715" lon="0.56198">
        <ele>149</ele>
        <time>2013-04-26T10:39:49</time>
      </trkpt>
      <trkpt lat="43.9708" lon="0.56176">
        <ele>151</ele>
        <time>2013-04-26T10:40:50</time>
      </trkpt>
      <trkpt lat="43.9701" lon="0.56168">
        <ele>154</ele>
        <time>2013-04-26T10:41:50</time>
      </trkpt>
      <trkpt lat="43.9694" lon="0.56148">
        <ele>153</ele>
        <time>2013-04-26T10:42:50</time>
      </trkpt>
      <trkpt lat="43.9687" lon="0.56105">
        <ele>155</ele>
        <time>2013-04-26T10:43:51</time>
      </trkpt>
      <trkpt lat="43.968" lon="0.5613">
        <ele>154</ele>
        <time>2013-04-26T10:44:51</time>
      </trkpt>
      <trkpt lat="43.9673" lon="0.56157">
        <ele>152</ele>
        <time>2013-04-26T10:45:51</time>
      </trkpt>
      <trkpt lat="43.9665" lon="0.56161">
        <ele>152</ele>
        <time>2013-04-26T10:46:52</time>
      </trkpt>
      <trkpt lat="43.9658" lon="0.5617">
        <ele>157</ele>
        <time>2013-04-26T10:47:52</time>
      </trkpt>
      <trkpt lat="43.9654" lon="0.56256">
        <ele>160</ele>
        <time>2013-04-26T10:48:53</time>
      </trkpt>
      <trkpt lat="43.9652" lon="0.5622">
        <ele>162</ele>
        <time>2013-04-26T10:49:53</time>
      </trkpt>
      <trkpt lat="43.9648" lon="0.56134">
        <ele>164</ele>
        <time>2013-04-26T10:50:53</time>
      </trkpt>
      <trkpt lat="43.9645" lon="0.56052">
        <ele>165</ele>
        <time>2013-04-26T10:51:54</time>
      </trkpt>
      <trkpt lat="43.9642" lon="0.55958">
        <ele>164</ele>
        <time>2013-04-26T10:52:54</time>
      </trkpt>
      <trkpt lat="43.9639" lon="0.55871">
        <ele>165</ele>
        <time>2013-04-26T10:53:54</time>
      </trkpt>
      <trkpt lat="43.9635" lon="0.55795">
        <ele>165</ele>
        <time>2013-04-26T10:54:55</time>
      </trkpt>
      <trkpt lat="43.9635" lon="0.55704">
        <ele>166</ele>
        <time>2013-04-26T10:55:55</time>
      </trkpt>
      <trkpt lat="43.9638" lon="0.55614">
        <ele>164</ele>
        <time>2013-04-26T10:56:56</time>
      </trkpt>
      <trkpt lat="43.9637" lon="0.55568">
        <ele>165</ele>
        <time>2013-04-26T10:57:56</time>
      </trkpt>
      <trkpt lat="43.9636" lon="0.55567">
        <ele>164</ele>
        <time>2013-04-26T10:58:56</time>
      </trkpt>
      <trkpt lat="43.9636" lon="0.55556">
        <ele>164</ele>
        <time>2013-04-26T10:59:57</time>
      </trkpt>
      <trkpt lat="43.9636" lon="0.5555">
        <ele>164</ele>
        <time>2013-04-26T11:00:57</time>
      </trkpt>
      <trkpt lat="43.9636" lon="0.55559">
        <ele>164</ele>
        <time>2013-04-26T11:01:57</time>
      </trkpt>
    </trkseg>
  </trk>
</gpx>